createdAt,value
2022-11-24T00:02:29.167Z,10.25
2022-11-24T00:05:30.938Z,10.52
2022-11-24T00:08:32.569Z,10.20
2022-11-24T00:11:36.122Z,10.25
2022-11-24T00:14:37.797Z,10.38
2022-11-24T00:17:39.469Z,10.45
2022-11-24T00:20:41.075Z,10.98
2022-11-24T00:23:45.889Z,10.55
2022-11-24T00:26:47.525Z,11.02
2022-11-24T00:29:49.149Z,10.60
2022-11-24T00:32:52.747Z,11.27
2022-11-24T00:35:56.261Z,11.32
2022-11-24T00:39:00.217Z,11.00
2022-11-24T00:42:02.111Z,12.45
2022-11-24T00:45:13.205Z,11.68
2022-11-24T00:48:15.074Z,13.07
2022-11-24T00:51:18.183Z,11.32
2022-11-24T00:54:19.835Z,12.18
2022-11-24T00:57:21.403Z,11.93
2022-11-24T01:00:23.111Z,11.20
2022-11-24T01:03:24.716Z,12.57
2022-11-24T01:06:27.040Z,12.52
2022-11-24T01:09:28.697Z,12.23
2022-11-24T01:12:30.301Z,13.52
2022-11-24T01:15:31.965Z,13.05
2022-11-24T01:18:33.577Z,12.77
2022-11-24T01:21:35.200Z,12.65
2022-11-24T01:24:36.814Z,12.45
2022-11-24T01:27:38.705Z,12.95
2022-11-24T01:30:40.356Z,14.20
2022-11-24T01:33:41.955Z,12.70
2022-11-24T01:36:43.663Z,14.25
2022-11-24T01:39:45.274Z,14.95
2022-11-24T01:42:50.697Z,13.93
2022-11-24T01:45:52.453Z,15.60
2022-11-24T01:49:13.178Z,14.32
2022-11-24T01:52:21.933Z,13.07
2022-11-24T01:55:31.045Z,12.63
2022-11-24T01:58:34.622Z,13.13
2022-11-24T02:01:36.390Z,12.25
2022-11-24T02:04:38.818Z,11.00
2022-11-24T02:07:40.628Z,11.52
2022-11-24T02:10:44.126Z,10.95
2022-11-24T02:13:47.893Z,10.68
2022-11-24T02:16:50.999Z,10.35
2022-11-24T02:19:58.572Z,10.07
2022-11-24T02:26:35.844Z,8.60
2022-11-24T02:29:38.265Z,8.70
2022-11-24T02:32:42.170Z,7.87
2022-11-24T02:35:43.796Z,8.48
2022-11-24T02:38:45.379Z,7.57
2022-11-24T02:41:52.157Z,8.75
2022-11-24T02:44:58.491Z,8.03
2022-11-24T02:48:00.210Z,9.35
2022-11-24T02:51:01.799Z,9.95
2022-11-24T02:54:03.455Z,10.07
2022-11-24T02:57:05.080Z,9.52
2022-11-24T03:00:07.342Z,9.85
2022-11-24T03:03:09.180Z,10.27
2022-11-24T03:06:10.840Z,9.60
2022-11-24T03:09:12.544Z,10.00
2022-11-24T03:12:16.644Z,9.90
2022-11-24T03:15:18.589Z,10.68
2022-11-24T03:18:20.354Z,11.77
2022-11-24T03:21:21.973Z,10.07
2022-11-24T03:24:23.561Z,10.95
2022-11-24T03:27:25.216Z,10.80
2022-11-24T03:30:27.044Z,10.70
2022-11-24T03:33:28.845Z,12.68
2022-11-24T03:36:30.513Z,13.65
2022-11-24T03:39:32.155Z,12.60
2022-11-24T03:42:33.843Z,15.40
2022-11-24T03:45:45.948Z,16.20
2022-11-24T03:48:47.858Z,17.00
2022-11-24T03:51:50.237Z,14.55
2022-11-24T03:54:52.530Z,13.62
2022-11-24T03:57:54.128Z,12.43
2022-11-24T04:00:56.620Z,12.65
2022-11-24T04:03:58.203Z,13.07
2022-11-24T04:06:59.811Z,11.50
2022-11-24T04:10:01.676Z,11.48
2022-11-24T04:13:04.888Z,11.98
2022-11-24T04:16:06.827Z,12.10
2022-11-24T04:19:08.484Z,11.18
2022-11-24T04:22:10.079Z,11.80
2022-11-24T04:25:12.153Z,12.48
2022-11-24T04:28:13.736Z,12.23
2022-11-24T04:31:15.376Z,12.25
2022-11-24T04:34:17.049Z,14.05
2022-11-24T04:37:18.801Z,16.02
2022-11-24T04:40:20.563Z,15.50
2022-11-24T04:43:22.254Z,16.08
2022-11-24T04:46:23.878Z,15.57
2022-11-24T04:49:25.519Z,17.58
2022-11-24T04:52:27.232Z,13.43
2022-11-24T04:55:28.845Z,12.37
2022-11-24T04:58:30.556Z,25.75
2022-11-24T05:01:32.841Z,42.65
2022-11-24T05:04:34.760Z,41.50
2022-11-24T05:07:36.702Z,32.38
2022-11-24T05:10:38.539Z,20.80
2022-11-24T05:13:40.318Z,14.00
2022-11-24T05:16:41.981Z,12.05
2022-11-24T05:19:43.596Z,13.43
2022-11-24T05:22:45.287Z,11.75
2022-11-24T05:25:47.900Z,12.63
2022-11-24T05:28:49.731Z,12.52
2022-11-24T05:31:51.433Z,13.60
2022-11-24T05:34:54.181Z,13.38
2022-11-24T05:37:55.737Z,17.95
2022-11-24T05:41:05.416Z,13.43
2022-11-24T05:44:07.010Z,10.82
2022-11-24T05:47:08.632Z,10.23
2022-11-24T05:50:12.243Z,10.60
2022-11-24T05:53:14.019Z,10.27
2022-11-24T05:56:15.628Z,9.75
2022-11-24T05:59:17.171Z,10.63
2022-11-24T06:02:19.321Z,9.82
2022-11-24T06:05:21.087Z,10.98
2022-11-24T06:08:25.590Z,11.10
2022-11-24T06:11:31.200Z,11.68
2022-11-24T06:14:33.492Z,11.57
2022-11-24T06:17:35.287Z,10.95
2022-11-24T06:20:36.894Z,11.57
2022-11-24T06:23:38.871Z,12.37
2022-11-24T06:26:40.909Z,12.25
2022-11-24T06:29:42.848Z,12.75
2022-11-24T06:32:49.304Z,12.95
2022-11-24T06:35:51.362Z,13.00
2022-11-24T06:38:53.499Z,13.50
2022-11-24T06:41:55.156Z,15.38
2022-11-24T06:44:56.694Z,20.48
2022-11-24T06:47:58.270Z,19.98
2022-11-24T06:51:01.366Z,21.50
2022-11-24T06:54:07.148Z,20.33
2022-11-24T06:57:08.785Z,20.77
2022-11-24T07:00:11.198Z,23.05
2022-11-24T07:03:16.444Z,22.75
2022-11-24T07:06:19.389Z,23.05
2022-11-24T07:09:20.943Z,23.62
2022-11-24T07:12:24.264Z,24.15
2022-11-24T07:15:26.596Z,26.62
2022-11-24T07:18:28.158Z,24.40
2022-11-24T07:21:30.866Z,23.17
2022-11-24T07:24:32.848Z,24.87
2022-11-24T07:27:34.603Z,24.30
2022-11-24T07:30:36.159Z,25.70
2022-11-24T07:33:37.808Z,27.48
2022-11-24T07:36:39.439Z,25.95
2022-11-24T07:39:41.019Z,25.35
2022-11-24T07:42:42.580Z,24.70
2022-11-24T07:45:44.252Z,24.40
2022-11-24T07:48:46.651Z,25.70
2022-11-24T07:51:48.780Z,26.12
2022-11-24T07:54:50.337Z,24.98
2022-11-24T07:57:51.886Z,32.53
2022-11-24T08:00:53.421Z,28.20
2022-11-24T08:03:55.113Z,26.65
2022-11-24T08:06:56.695Z,26.33
2022-11-24T08:09:58.231Z,25.05
2022-11-24T08:13:03.463Z,26.23
2022-11-24T08:16:07.526Z,26.85
2022-11-24T08:19:10.957Z,26.27
2022-11-24T08:22:12.577Z,26.83
2022-11-24T08:25:15.343Z,27.50
2022-11-24T08:28:16.971Z,27.95
2022-11-24T08:31:19.139Z,28.15
2022-11-24T08:34:20.838Z,28.12
2022-11-24T08:37:22.406Z,29.58
2022-11-24T08:40:24.050Z,29.12
2022-11-24T08:43:25.672Z,29.08
2022-11-24T08:46:27.537Z,28.52
2022-11-24T08:49:29.560Z,29.10
2022-11-24T08:52:31.211Z,30.37
2022-11-24T08:55:32.749Z,31.52
2022-11-24T08:58:35.291Z,33.65
2022-11-24T09:01:38.104Z,31.98
2022-11-24T09:04:39.757Z,32.15
2022-11-24T09:07:41.806Z,33.45
2022-11-24T09:10:44.028Z,32.08
2022-11-24T09:13:46.358Z,32.53
2022-11-24T09:16:48.034Z,31.23
2022-11-24T09:19:49.609Z,31.37
2022-11-24T09:22:51.222Z,32.53
2022-11-24T09:25:52.798Z,33.35
2022-11-24T09:28:55.947Z,29.77
2022-11-24T09:32:02.033Z,33.97
2022-11-24T09:35:07.391Z,37.55
2022-11-24T09:38:09.975Z,32.60
2022-11-24T09:41:17.670Z,28.95
2022-11-24T09:44:28.399Z,29.42
2022-11-24T09:47:32.918Z,27.42
2022-11-24T09:50:37.445Z,27.27
2022-11-24T09:53:57.570Z,28.00
2022-11-24T09:57:01.542Z,28.45
2022-11-24T10:00:17.613Z,26.27
2022-11-24T10:03:39.670Z,27.62
2022-11-24T10:07:06.371Z,25.88
2022-11-24T10:10:29.475Z,28.15
2022-11-24T10:13:34.035Z,27.20
2022-11-24T10:16:45.339Z,24.50
2022-11-24T10:20:09.098Z,23.77
2022-11-24T10:23:22.760Z,23.55
2022-11-24T10:26:39.290Z,23.50
2022-11-24T10:29:42.092Z,24.55
2022-11-24T10:32:56.504Z,23.42
2022-11-24T10:36:06.538Z,23.48
2022-11-24T10:39:41.867Z,24.58
2022-11-24T10:42:43.581Z,22.05
2022-11-24T10:45:45.776Z,23.48
2022-11-24T10:48:51.793Z,24.58
2022-11-24T10:52:11.777Z,24.70
2022-11-24T10:55:13.600Z,24.15
2022-11-24T10:58:16.902Z,25.60
2022-11-24T11:01:21.741Z,33.70
2022-11-24T11:04:28.377Z,23.73
2022-11-24T11:07:30.118Z,23.62
2022-11-24T11:10:31.863Z,23.33
2022-11-24T11:13:33.425Z,23.10
2022-11-24T11:16:42.425Z,22.85
2022-11-24T11:19:49.479Z,23.77
2022-11-24T11:22:58.585Z,23.30
2022-11-24T11:26:20.211Z,23.77
2022-11-24T11:36:17.200Z,21.12
2022-11-24T11:39:45.405Z,20.27
2022-11-24T11:43:03.410Z,16.42
2022-11-24T11:46:11.972Z,15.35
2022-11-24T11:49:14.309Z,14.48
2022-11-24T11:55:54.696Z,15.15
2022-11-24T11:59:31.948Z,15.55
2022-11-24T12:03:24.349Z,15.55
2022-11-24T12:06:57.017Z,15.48
2022-11-24T12:10:36.190Z,15.57
2022-11-24T12:14:15.365Z,15.18
2022-11-24T12:17:29.655Z,16.98
2022-11-24T12:20:37.078Z,16.33
2022-11-24T12:23:51.354Z,15.98
2022-11-24T12:27:04.116Z,17.62
2022-11-24T12:30:10.432Z,16.98
2022-11-24T12:33:28.381Z,18.42
2022-11-24T12:36:47.126Z,22.87
2022-11-24T12:40:07.163Z,20.48
2022-11-24T12:43:36.872Z,23.80
2022-11-24T12:46:46.421Z,28.27
2022-11-24T12:50:12.741Z,20.90
2022-11-24T12:53:23.735Z,20.40
2022-11-24T12:56:38.247Z,22.83
2022-11-24T13:00:00.858Z,23.33
2022-11-24T13:03:32.871Z,26.90
2022-11-24T13:06:50.499Z,26.75
2022-11-24T13:14:00.122Z,28.10
2022-11-24T13:20:31.366Z,21.98
2022-11-24T13:23:32.918Z,22.03
2022-11-24T13:26:43.267Z,22.45
2022-11-24T13:29:46.675Z,20.52
2022-11-24T13:33:21.662Z,20.17
2022-11-24T13:36:25.874Z,18.25
2022-11-24T13:39:50.489Z,17.12
2022-11-24T13:42:56.130Z,16.83
2022-11-24T13:45:57.883Z,15.77
2022-11-24T13:49:00.064Z,17.80
2022-11-24T13:52:39.558Z,16.67
2022-11-24T13:55:52.384Z,15.65
2022-11-24T13:58:57.822Z,14.75
2022-11-24T14:01:59.605Z,15.73
2022-11-24T14:05:01.261Z,15.82
2022-11-24T14:08:05.933Z,16.27
2022-11-24T14:11:16.546Z,16.40
2022-11-24T14:14:21.781Z,18.87
2022-11-24T14:17:25.540Z,16.12
2022-11-24T14:20:28.327Z,16.20
2022-11-24T14:23:31.432Z,16.70
2022-11-24T14:26:35.824Z,17.77
2022-11-24T14:29:37.409Z,16.23
2022-11-24T14:32:39.836Z,16.70
2022-11-24T14:35:46.948Z,16.95
2022-11-24T14:38:48.568Z,19.45
2022-11-24T14:41:55.579Z,19.92
2022-11-24T14:45:00.194Z,21.25
2022-11-24T14:48:01.812Z,17.33
2022-11-24T14:51:24.954Z,18.95
2022-11-24T14:54:27.030Z,17.85
2022-11-24T14:57:31.317Z,18.98
2022-11-24T15:00:33.400Z,22.62
2022-11-24T15:03:35.037Z,22.73
2022-11-24T15:06:36.783Z,28.20
2022-11-24T15:10:04.103Z,22.30
2022-11-24T15:13:17.021Z,19.52
2022-11-24T15:16:21.090Z,17.15
2022-11-24T15:19:26.867Z,17.85
2022-11-24T15:22:41.440Z,16.42
2022-11-24T15:25:43.015Z,18.70
2022-11-24T15:28:46.666Z,19.00
2022-11-24T15:31:52.686Z,16.27
2022-11-24T15:34:54.662Z,16.62
2022-11-24T15:37:56.345Z,15.57
2022-11-24T15:41:00.686Z,15.32
2022-11-24T15:44:02.294Z,14.07
2022-11-24T15:47:03.966Z,15.55
2022-11-24T15:50:06.181Z,15.35
2022-11-24T15:53:31.414Z,16.35
2022-11-24T15:56:37.734Z,15.65
2022-11-24T15:59:39.289Z,15.15
2022-11-24T16:02:40.951Z,16.62
2022-11-24T16:05:42.597Z,15.85
2022-11-24T16:08:44.196Z,15.73
2022-11-24T16:11:45.782Z,15.98
2022-11-24T16:14:47.382Z,20.35
2022-11-24T16:17:49.320Z,17.33
2022-11-24T16:20:50.961Z,15.90
2022-11-24T16:23:52.658Z,15.20
2022-11-24T16:26:54.796Z,26.17
2022-11-24T16:29:56.446Z,33.70
2022-11-24T16:32:58.034Z,30.48
2022-11-24T16:35:59.708Z,25.65
2022-11-24T16:39:01.319Z,18.05
2022-11-24T16:42:03.971Z,21.02
2022-11-24T16:45:06.130Z,14.80
2022-11-24T16:48:08.005Z,14.05
2022-11-24T16:51:10.362Z,14.63
2022-11-24T16:54:12.460Z,15.13
2022-11-24T16:57:15.703Z,15.50
2022-11-24T17:00:17.883Z,15.43
2022-11-24T17:03:20.018Z,15.10
2022-11-24T17:06:22.759Z,14.87
2022-11-24T17:09:24.846Z,15.35
2022-11-24T17:12:27.726Z,15.50
2022-11-24T17:15:36.555Z,15.00
2022-11-24T17:18:41.272Z,14.68
2022-11-24T17:21:43.177Z,15.38
2022-11-24T17:24:45.214Z,16.10
2022-11-24T17:27:47.245Z,16.02
2022-11-24T17:30:48.879Z,15.95
2022-11-24T17:33:52.677Z,15.63
2022-11-24T17:36:54.629Z,16.95
2022-11-24T17:40:26.303Z,15.05
2022-11-24T17:43:18.528Z,17.33
2022-11-24T17:46:20.645Z,18.42
2022-11-24T17:49:23.698Z,19.23
2022-11-24T17:52:25.999Z,18.25
2022-11-24T17:55:27.852Z,18.48
2022-11-24T17:58:31.357Z,18.17
2022-11-24T18:01:34.231Z,16.08
2022-11-24T18:04:36.262Z,16.55
2022-11-24T18:07:38.525Z,16.67
2022-11-24T18:10:40.924Z,16.45
2022-11-24T18:14:01.150Z,18.40
2022-11-24T18:17:03.796Z,23.77
2022-11-24T18:20:06.347Z,17.77
2022-11-24T18:23:08.260Z,17.08
2022-11-24T18:26:15.217Z,16.05
2022-11-24T18:29:17.286Z,31.92
2022-11-24T18:32:19.268Z,18.95
2022-11-24T18:35:20.926Z,17.23
2022-11-24T18:38:22.903Z,17.70
2022-11-24T18:41:29.876Z,17.62
2022-11-24T18:44:32.106Z,19.45
2022-11-24T18:47:34.376Z,19.83
2022-11-24T18:50:36.449Z,20.92
2022-11-24T18:53:38.536Z,19.33
2022-11-24T18:56:40.591Z,18.73
2022-11-24T18:59:42.684Z,19.30
2022-11-24T19:02:45.459Z,17.87
2022-11-24T19:05:47.656Z,18.92
2022-11-24T19:08:54.333Z,20.73
2022-11-24T19:11:56.379Z,21.05
2022-11-24T19:15:00.963Z,21.60
2022-11-24T19:18:21.666Z,21.73
2022-11-24T19:21:23.912Z,21.08
2022-11-24T19:24:26.081Z,21.52
2022-11-24T19:27:27.820Z,20.65
2022-11-24T19:30:29.994Z,19.55
2022-11-24T19:33:33.015Z,21.37
2022-11-24T19:36:35.189Z,19.85
2022-11-24T19:39:37.216Z,19.77
2022-11-24T19:42:43.123Z,21.73
2022-11-24T19:45:44.936Z,20.40
2022-11-24T19:48:54.660Z,20.23
2022-11-24T19:51:56.750Z,19.92
2022-11-24T19:55:00.283Z,19.83
2022-11-24T19:58:03.429Z,19.75
2022-11-24T20:01:11.671Z,18.75
2022-11-24T20:04:15.558Z,19.48
2022-11-24T20:07:19.463Z,19.50
2022-11-24T20:10:21.106Z,18.40
2022-11-24T20:13:23.018Z,18.48
2022-11-24T20:16:28.536Z,21.67
2022-11-24T20:19:31.729Z,20.92
2022-11-24T20:22:33.713Z,18.87
2022-11-24T20:25:39.961Z,20.17
2022-11-24T20:28:42.214Z,21.62
2022-11-24T20:31:48.724Z,21.48
2022-11-24T20:34:50.478Z,21.10
2022-11-24T20:41:14.541Z,19.77
2022-11-24T20:44:18.437Z,19.50
2022-11-24T20:47:19.979Z,18.70
2022-11-24T20:50:21.530Z,16.58
2022-11-24T20:53:24.314Z,19.87
2022-11-24T20:56:37.574Z,25.77
2022-11-24T20:59:39.701Z,29.00
2022-11-24T21:02:42.754Z,21.42
2022-11-24T21:05:44.760Z,26.08
2022-11-24T21:08:46.533Z,22.40
2022-11-24T21:11:49.073Z,24.70
2022-11-24T21:14:50.847Z,23.15
2022-11-24T21:17:52.467Z,24.90
2022-11-24T21:20:54.178Z,26.55
2022-11-24T21:23:55.733Z,26.02
2022-11-24T21:26:57.315Z,34.22
2022-11-24T21:30:00.261Z,21.85
2022-11-24T21:33:05.550Z,21.60
2022-11-24T21:36:07.404Z,21.60
2022-11-24T21:39:12.191Z,23.00
2022-11-24T21:42:13.820Z,23.38
2022-11-24T21:45:15.584Z,23.48
2022-11-24T21:48:17.114Z,20.90
2022-11-24T21:51:20.937Z,19.02
2022-11-24T21:54:22.791Z,20.00
2022-11-24T21:57:24.384Z,19.60
2022-11-24T22:00:26.007Z,19.23
2022-11-24T22:03:27.580Z,17.67
2022-11-24T22:06:29.163Z,18.25
2022-11-24T22:09:30.715Z,17.15
2022-11-24T22:12:32.289Z,18.15
2022-11-24T22:15:33.846Z,17.70
2022-11-24T22:18:37.864Z,17.25
2022-11-24T22:21:39.419Z,18.55
2022-11-24T22:24:41.288Z,19.75
2022-11-24T22:27:42.941Z,19.02
2022-11-24T22:30:44.491Z,18.65
2022-11-24T22:33:46.437Z,22.67
2022-11-24T22:36:48.229Z,20.75
2022-11-24T22:39:49.819Z,21.33
2022-11-24T22:42:51.380Z,22.00
2022-11-24T22:45:52.990Z,22.52
2022-11-24T22:48:57.540Z,20.60
2022-11-24T22:51:59.172Z,20.90
2022-11-24T22:55:00.746Z,20.15
2022-11-24T22:58:02.402Z,19.23
2022-11-24T23:01:17.837Z,18.20
2022-11-24T23:04:19.444Z,18.98
2022-11-24T23:07:21.077Z,18.73
2022-11-24T23:10:22.811Z,19.90
2022-11-24T23:13:24.374Z,19.08
2022-11-24T23:16:26.593Z,20.42
2022-11-24T23:19:28.315Z,19.92
2022-11-24T23:22:29.896Z,18.62
2022-11-24T23:25:33.761Z,18.48
2022-11-24T23:28:35.444Z,19.87
2022-11-24T23:31:39.854Z,17.80
2022-11-24T23:34:41.668Z,18.70
2022-11-24T23:38:06.524Z,17.35
2022-11-24T23:41:10.074Z,17.87
2022-11-24T23:44:11.812Z,18.50
2022-11-24T23:47:13.373Z,17.17
2022-11-24T23:50:15.076Z,17.12
2022-11-24T23:53:16.605Z,17.77
2022-11-24T23:56:23.698Z,16.55
2022-11-24T23:59:25.239Z,17.20
